sensor_id;sensor_type;location;lat;lon;timestamp;P1;durP1;ratioP1;P2;durP2;ratioP2
11422;SDS011;5768;51.476;7.210;2023-01-01T00:01:24;14.70;;;10.77;;
11422;SDS011;5768;51.476;7.210;2023-01-01T00:06:28;14.20;;;7.85;;
11422;SDS011;5768;51.476;7.210;2023-01-01T00:11:30;10.30;;;6.53;;
11422;SDS011;5768;51.476;7.210;2023-01-01T00:16:34;12.48;;;8.80;;
11422;SDS011;5768;51.476;7.210;2023-01-01T00:21:36;13.55;;;7.85;;
11422;SDS011;5768;51.476;7.210;2023-01-01T00:26:39;13.75;;;9.35;;
11422;SDS011;5768;51.476;7.210;2023-01-01T00:31:42;14.38;;;11.18;;
11422;SDS011;5768;51.476;7.210;2023-01-01T00:36:44;15.45;;;9.38;;
11422;SDS011;5768;51.476;7.210;2023-01-01T00:41:46;15.95;;;11.43;;
11422;SDS011;5768;51.476;7.210;2023-01-01T00:46:50;13.13;;;10.68;;
11422;SDS011;5768;51.476;7.210;2023-01-01T00:51:52;15.30;;;10.57;;
11422;SDS011;5768;51.476;7.210;2023-01-01T00:56:54;13.77;;;10.02;;
11422;SDS011;5768;51.476;7.210;2023-01-01T01:01:57;18.15;;;10.27;;
11422;SDS011;5768;51.476;7.210;2023-01-01T01:06:59;17.25;;;10.55;;
11422;SDS011;5768;51.476;7.210;2023-01-01T01:12:02;9.57;;;7.20;;
11422;SDS011;5768;51.476;7.210;2023-01-01T01:17:05;12.38;;;8.27;;
11422;SDS011;5768;51.476;7.210;2023-01-01T01:22:07;11.23;;;6.38;;
11422;SDS011;5768;51.476;7.210;2023-01-01T01:27:09;8.30;;;5.45;;
11422;SDS011;5768;51.476;7.210;2023-01-01T01:32:12;9.48;;;6.75;;
11422;SDS011;5768;51.476;7.210;2023-01-01T01:37:14;9.15;;;7.30;;
11422;SDS011;5768;51.476;7.210;2023-01-01T01:42:17;6.75;;;5.25;;
11422;SDS011;5768;51.476;7.210;2023-01-01T01:47:21;8.82;;;6.13;;
11422;SDS011;5768;51.476;7.210;2023-01-01T01:52:28;7.47;;;5.10;;
11422;SDS011;5768;51.476;7.210;2023-01-01T01:57:35;8.55;;;4.72;;
11422;SDS011;5768;51.476;7.210;2023-01-01T02:02:43;5.00;;;3.53;;
11422;SDS011;5768;51.476;7.210;2023-01-01T02:07:52;5.00;;;2.75;;
11422;SDS011;5768;51.476;7.210;2023-01-01T02:12:57;9.57;;;3.78;;
11422;SDS011;5768;51.476;7.210;2023-01-01T02:18:02;5.97;;;2.95;;
11422;SDS011;5768;51.476;7.210;2023-01-01T02:23:25;4.32;;;2.58;;
11422;SDS011;5768;51.476;7.210;2023-01-01T02:28:56;5.63;;;2.70;;
11422;SDS011;5768;51.476;7.210;2023-01-01T02:34:05;4.00;;;2.00;;
11422;SDS011;5768;51.476;7.210;2023-01-01T02:39:13;4.20;;;2.05;;
11422;SDS011;5768;51.476;7.210;2023-01-01T02:44:19;4.53;;;2.13;;
11422;SDS011;5768;51.476;7.210;2023-01-01T02:49:25;3.33;;;1.67;;
11422;SDS011;5768;51.476;7.210;2023-01-01T02:54:31;3.92;;;1.67;;
11422;SDS011;5768;51.476;7.210;2023-01-01T02:59:50;3.35;;;1.50;;
11422;SDS011;5768;51.476;7.210;2023-01-01T03:05:28;2.72;;;1.55;;
11422;SDS011;5768;51.476;7.210;2023-01-01T03:11:04;4.13;;;1.70;;
11422;SDS011;5768;51.476;7.210;2023-01-01T03:16:15;3.85;;;1.60;;
11422;SDS011;5768;51.476;7.210;2023-01-01T03:21:22;2.45;;;1.35;;
11422;SDS011;5768;51.476;7.210;2023-01-01T03:26:24;2.25;;;1.58;;
11422;SDS011;5768;51.476;7.210;2023-01-01T03:31:32;3.25;;;1.73;;
11422;SDS011;5768;51.476;7.210;2023-01-01T03:36:35;4.22;;;1.60;;
11422;SDS011;5768;51.476;7.210;2023-01-01T03:41:42;2.50;;;1.10;;
11422;SDS011;5768;51.476;7.210;2023-01-01T03:46:54;4.50;;;1.65;;
11422;SDS011;5768;51.476;7.210;2023-01-01T03:52:02;2.10;;;1.38;;
11422;SDS011;5768;51.476;7.210;2023-01-01T03:57:32;2.65;;;1.63;;
11422;SDS011;5768;51.476;7.210;2023-01-01T04:02:47;2.65;;;1.58;;
11422;SDS011;5768;51.476;7.210;2023-01-01T04:07:54;4.03;;;1.52;;
11422;SDS011;5768;51.476;7.210;2023-01-01T04:13:01;4.68;;;1.42;;
11422;SDS011;5768;51.476;7.210;2023-01-01T04:18:07;3.20;;;1.40;;
11422;SDS011;5768;51.476;7.210;2023-01-01T04:23:10;4.47;;;1.40;;
11422;SDS011;5768;51.476;7.210;2023-01-01T04:28:12;2.20;;;1.40;;
11422;SDS011;5768;51.476;7.210;2023-01-01T04:33:15;2.60;;;1.50;;
11422;SDS011;5768;51.476;7.210;2023-01-01T04:38:17;3.75;;;1.42;;
11422;SDS011;5768;51.476;7.210;2023-01-01T04:43:19;4.18;;;1.40;;
11422;SDS011;5768;51.476;7.210;2023-01-01T04:48:23;1.92;;;1.30;;
11422;SDS011;5768;51.476;7.210;2023-01-01T04:53:27;4.63;;;1.52;;
11422;SDS011;5768;51.476;7.210;2023-01-01T04:58:32;2.95;;;1.60;;
11422;SDS011;5768;51.476;7.210;2023-01-01T05:03:36;2.78;;;1.20;;
11422;SDS011;5768;51.476;7.210;2023-01-01T05:08:38;2.17;;;1.38;;
11422;SDS011;5768;51.476;7.210;2023-01-01T05:13:43;3.90;;;1.33;;
11422;SDS011;5768;51.476;7.210;2023-01-01T05:18:50;2.95;;;1.55;;
11422;SDS011;5768;51.476;7.210;2023-01-01T05:23:52;2.15;;;1.60;;
11422;SDS011;5768;51.476;7.210;2023-01-01T05:28:56;2.35;;;1.17;;
11422;SDS011;5768;51.476;7.210;2023-01-01T05:34:02;2.63;;;1.40;;
11422;SDS011;5768;51.476;7.210;2023-01-01T05:39:05;3.53;;;1.33;;
11422;SDS011;5768;51.476;7.210;2023-01-01T05:44:09;2.88;;;1.33;;
11422;SDS011;5768;51.476;7.210;2023-01-01T05:49:13;4.32;;;1.83;;
11422;SDS011;5768;51.476;7.210;2023-01-01T05:54:15;2.60;;;1.50;;
11422;SDS011;5768;51.476;7.210;2023-01-01T05:59:17;1.38;;;1.10;;
11422;SDS011;5768;51.476;7.210;2023-01-01T06:04:20;3.88;;;1.60;;
11422;SDS011;5768;51.476;7.210;2023-01-01T06:09:22;2.67;;;1.48;;
11422;SDS011;5768;51.476;7.210;2023-01-01T06:14:24;3.30;;;1.67;;
11422;SDS011;5768;51.476;7.210;2023-01-01T06:19:28;2.88;;;1.42;;
11422;SDS011;5768;51.476;7.210;2023-01-01T06:24:30;4.78;;;1.58;;
11422;SDS011;5768;51.476;7.210;2023-01-01T06:29:32;3.30;;;1.40;;
11422;SDS011;5768;51.476;7.210;2023-01-01T06:34:35;3.05;;;1.70;;
11422;SDS011;5768;51.476;7.210;2023-01-01T06:39:38;2.17;;;1.20;;
11422;SDS011;5768;51.476;7.210;2023-01-01T06:44:40;4.10;;;1.63;;
11422;SDS011;5768;51.476;7.210;2023-01-01T06:49:43;2.25;;;1.50;;
11422;SDS011;5768;51.476;7.210;2023-01-01T06:54:45;1.42;;;1.30;;
11422;SDS011;5768;51.476;7.210;2023-01-01T06:59:47;4.60;;;1.83;;
11422;SDS011;5768;51.476;7.210;2023-01-01T07:04:51;3.70;;;1.42;;
11422;SDS011;5768;51.476;7.210;2023-01-01T07:09:53;4.25;;;1.45;;
11422;SDS011;5768;51.476;7.210;2023-01-01T07:14:58;3.95;;;1.70;;
11422;SDS011;5768;51.476;7.210;2023-01-01T07:20:01;3.90;;;1.55;;
11422;SDS011;5768;51.476;7.210;2023-01-01T07:25:04;1.85;;;1.10;;
11422;SDS011;5768;51.476;7.210;2023-01-01T07:30:09;2.92;;;1.88;;
11422;SDS011;5768;51.476;7.210;2023-01-01T07:35:13;2.50;;;1.20;;
11422;SDS011;5768;51.476;7.210;2023-01-01T07:40:15;4.25;;;1.63;;
11422;SDS011;5768;51.476;7.210;2023-01-01T07:45:17;6.50;;;2.00;;
11422;SDS011;5768;51.476;7.210;2023-01-01T07:50:22;5.55;;;1.75;;
11422;SDS011;5768;51.476;7.210;2023-01-01T07:55:26;3.40;;;1.40;;
11422;SDS011;5768;51.476;7.210;2023-01-01T08:00:28;4.88;;;2.20;;
11422;SDS011;5768;51.476;7.210;2023-01-01T08:05:32;3.10;;;1.83;;
11422;SDS011;5768;51.476;7.210;2023-01-01T08:10:35;2.45;;;1.90;;
11422;SDS011;5768;51.476;7.210;2023-01-01T08:15:38;4.22;;;2.20;;
11422;SDS011;5768;51.476;7.210;2023-01-01T08:20:42;4.22;;;1.83;;
11422;SDS011;5768;51.476;7.210;2023-01-01T08:25:44;3.47;;;1.92;;
11422;SDS011;5768;51.476;7.210;2023-01-01T08:30:46;5.93;;;2.30;;
11422;SDS011;5768;51.476;7.210;2023-01-01T08:35:50;3.75;;;1.73;;
11422;SDS011;5768;51.476;7.210;2023-01-01T08:40:52;2.42;;;1.48;;
11422;SDS011;5768;51.476;7.210;2023-01-01T08:45:54;4.50;;;2.20;;
11422;SDS011;5768;51.476;7.210;2023-01-01T08:50:59;4.05;;;1.70;;
11422;SDS011;5768;51.476;7.210;2023-01-01T08:56:03;4.15;;;1.65;;
11422;SDS011;5768;51.476;7.210;2023-01-01T09:01:07;2.67;;;1.65;;
11422;SDS011;5768;51.476;7.210;2023-01-01T09:06:12;5.10;;;1.80;;
11422;SDS011;5768;51.476;7.210;2023-01-01T09:11:18;5.50;;;1.67;;
11422;SDS011;5768;51.476;7.210;2023-01-01T09:16:24;3.58;;;1.70;;
11422;SDS011;5768;51.476;7.210;2023-01-01T09:21:27;2.30;;;1.50;;
11422;SDS011;5768;51.476;7.210;2023-01-01T09:26:30;5.10;;;1.70;;
11422;SDS011;5768;51.476;7.210;2023-01-01T09:31:32;3.05;;;1.45;;
11422;SDS011;5768;51.476;7.210;2023-01-01T09:36:35;2.70;;;1.70;;
11422;SDS011;5768;51.476;7.210;2023-01-01T09:41:40;3.95;;;1.70;;
11422;SDS011;5768;51.476;7.210;2023-01-01T09:47:10;2.25;;;1.60;;
11422;SDS011;5768;51.476;7.210;2023-01-01T09:52:25;3.47;;;1.30;;
11422;SDS011;5768;51.476;7.210;2023-01-01T09:57:40;4.18;;;1.67;;
11422;SDS011;5768;51.476;7.210;2023-01-01T10:02:46;1.83;;;1.23;;
11422;SDS011;5768;51.476;7.210;2023-01-01T10:08:20;4.80;;;1.88;;
11422;SDS011;5768;51.476;7.210;2023-01-01T10:13:37;3.25;;;1.80;;
11422;SDS011;5768;51.476;7.210;2023-01-01T10:18:44;4.60;;;1.80;;
11422;SDS011;5768;51.476;7.210;2023-01-01T10:23:53;3.90;;;1.50;;
11422;SDS011;5768;51.476;7.210;2023-01-01T10:29:03;4.45;;;1.80;;
11422;SDS011;5768;51.476;7.210;2023-01-01T10:34:18;5.72;;;1.83;;
11422;SDS011;5768;51.476;7.210;2023-01-01T10:39:26;4.32;;;2.17;;
11422;SDS011;5768;51.476;7.210;2023-01-01T10:44:29;3.53;;;1.50;;
11422;SDS011;5768;51.476;7.210;2023-01-01T10:49:39;2.08;;;1.58;;
11422;SDS011;5768;51.476;7.210;2023-01-01T10:54:57;4.43;;;2.42;;
11422;SDS011;5768;51.476;7.210;2023-01-01T11:00:11;2.97;;;1.50;;
11422;SDS011;5768;51.476;7.210;2023-01-01T11:05:31;2.92;;;1.55;;
11422;SDS011;5768;51.476;7.210;2023-01-01T11:10:34;3.67;;;1.85;;
11422;SDS011;5768;51.476;7.210;2023-01-01T11:15:37;4.63;;;2.17;;
11422;SDS011;5768;51.476;7.210;2023-01-01T11:20:43;6.15;;;2.25;;
11422;SDS011;5768;51.476;7.210;2023-01-01T11:25:59;1.75;;;1.20;;
11422;SDS011;5768;51.476;7.210;2023-01-01T11:31:06;5.30;;;1.85;;
11422;SDS011;5768;51.476;7.210;2023-01-01T11:36:19;5.93;;;2.17;;
11422;SDS011;5768;51.476;7.210;2023-01-01T11:41:25;4.07;;;1.77;;
11422;SDS011;5768;51.476;7.210;2023-01-01T11:46:27;5.05;;;1.67;;
11422;SDS011;5768;51.476;7.210;2023-01-01T11:51:30;5.25;;;2.03;;
11422;SDS011;5768;51.476;7.210;2023-01-01T11:56:35;2.92;;;1.70;;
11422;SDS011;5768;51.476;7.210;2023-01-01T12:01:39;4.75;;;2.08;;
11422;SDS011;5768;51.476;7.210;2023-01-01T12:06:48;4.18;;;2.03;;
11422;SDS011;5768;51.476;7.210;2023-01-01T12:11:59;5.20;;;2.17;;
11422;SDS011;5768;51.476;7.210;2023-01-01T12:17:08;4.63;;;1.67;;
11422;SDS011;5768;51.476;7.210;2023-01-01T12:22:20;2.72;;;1.40;;
11422;SDS011;5768;51.476;7.210;2023-01-01T12:27:34;4.50;;;2.00;;
11422;SDS011;5768;51.476;7.210;2023-01-01T12:33:12;4.32;;;1.98;;
11422;SDS011;5768;51.476;7.210;2023-01-01T12:38:48;2.97;;;1.77;;
11422;SDS011;5768;51.476;7.210;2023-01-01T12:45:06;4.43;;;1.90;;
11422;SDS011;5768;51.476;7.210;2023-01-01T12:50:27;4.15;;;1.90;;
11422;SDS011;5768;51.476;7.210;2023-01-01T12:55:45;7.03;;;1.83;;
11422;SDS011;5768;51.476;7.210;2023-01-01T13:01:12;6.50;;;2.00;;
11422;SDS011;5768;51.476;7.210;2023-01-01T13:06:21;4.60;;;1.90;;
11422;SDS011;5768;51.476;7.210;2023-01-01T13:11:29;3.88;;;1.77;;
11422;SDS011;5768;51.476;7.210;2023-01-01T13:16:36;6.00;;;2.20;;
11422;SDS011;5768;51.476;7.210;2023-01-01T13:21:41;4.25;;;1.65;;
11422;SDS011;5768;51.476;7.210;2023-01-01T13:26:43;3.17;;;1.38;;
11422;SDS011;5768;51.476;7.210;2023-01-01T13:31:59;3.17;;;1.70;;
11422;SDS011;5768;51.476;7.210;2023-01-01T13:37:24;6.65;;;2.10;;
11422;SDS011;5768;51.476;7.210;2023-01-01T13:42:42;5.70;;;2.05;;
11422;SDS011;5768;51.476;7.210;2023-01-01T13:48:00;3.13;;;1.80;;
11422;SDS011;5768;51.476;7.210;2023-01-01T13:53:26;6.25;;;1.85;;
11422;SDS011;5768;51.476;7.210;2023-01-01T14:04:38;4.57;;;1.83;;
11422;SDS011;5768;51.476;7.210;2023-01-01T14:09:46;5.80;;;2.10;;
11422;SDS011;5768;51.476;7.210;2023-01-01T14:14:48;5.57;;;1.98;;
11422;SDS011;5768;51.476;7.210;2023-01-01T14:19:51;3.58;;;1.85;;
11422;SDS011;5768;51.476;7.210;2023-01-01T14:24:54;5.90;;;1.90;;
11422;SDS011;5768;51.476;7.210;2023-01-01T14:29:57;5.68;;;2.17;;
11422;SDS011;5768;51.476;7.210;2023-01-01T14:35:01;6.75;;;2.40;;
11422;SDS011;5768;51.476;7.210;2023-01-01T14:40:14;3.40;;;1.83;;
11422;SDS011;5768;51.476;7.210;2023-01-01T14:45:25;6.22;;;2.10;;
11422;SDS011;5768;51.476;7.210;2023-01-01T14:50:31;6.13;;;2.38;;
11422;SDS011;5768;51.476;7.210;2023-01-01T14:55:37;7.07;;;2.35;;
11422;SDS011;5768;51.476;7.210;2023-01-01T15:00:42;5.50;;;2.15;;
11422;SDS011;5768;51.476;7.210;2023-01-01T15:05:55;3.88;;;1.85;;
11422;SDS011;5768;51.476;7.210;2023-01-01T15:11:01;5.18;;;2.03;;
11422;SDS011;5768;51.476;7.210;2023-01-01T15:16:14;6.57;;;2.30;;
11422;SDS011;5768;51.476;7.210;2023-01-01T15:21:22;3.97;;;1.80;;
11422;SDS011;5768;51.476;7.210;2023-01-01T15:26:38;4.15;;;1.95;;
11422;SDS011;5768;51.476;7.210;2023-01-01T15:31:45;5.78;;;2.03;;
11422;SDS011;5768;51.476;7.210;2023-01-01T15:36:55;4.60;;;1.90;;
11422;SDS011;5768;51.476;7.210;2023-01-01T15:42:20;5.55;;;2.13;;
11422;SDS011;5768;51.476;7.210;2023-01-01T15:47:27;6.07;;;2.22;;
11422;SDS011;5768;51.476;7.210;2023-01-01T15:52:31;3.55;;;1.83;;
11422;SDS011;5768;51.476;7.210;2023-01-01T15:57:35;5.82;;;2.38;;
11422;SDS011;5768;51.476;7.210;2023-01-01T16:02:37;10.00;;;4.55;;
11422;SDS011;5768;51.476;7.210;2023-01-01T16:07:44;5.70;;;2.88;;
11422;SDS011;5768;51.476;7.210;2023-01-01T16:12:46;4.30;;;2.30;;
11422;SDS011;5768;51.476;7.210;2023-01-01T16:17:48;5.68;;;2.67;;
11422;SDS011;5768;51.476;7.210;2023-01-01T16:22:52;5.68;;;2.70;;
11422;SDS011;5768;51.476;7.210;2023-01-01T16:27:54;5.18;;;2.40;;
11422;SDS011;5768;51.476;7.210;2023-01-01T16:32:56;2.65;;;1.85;;
11422;SDS011;5768;51.476;7.210;2023-01-01T16:38:00;5.97;;;2.50;;
11422;SDS011;5768;51.476;7.210;2023-01-01T16:43:02;3.30;;;2.05;;
11422;SDS011;5768;51.476;7.210;2023-01-01T16:48:08;5.78;;;3.00;;
11422;SDS011;5768;51.476;7.210;2023-01-01T16:53:12;6.90;;;3.25;;
11422;SDS011;5768;51.476;7.210;2023-01-01T16:58:14;3.58;;;2.00;;
11422;SDS011;5768;51.476;7.210;2023-01-01T17:03:16;2.80;;;1.80;;
11422;SDS011;5768;51.476;7.210;2023-01-01T17:08:19;4.20;;;1.73;;
11422;SDS011;5768;51.476;7.210;2023-01-01T17:13:21;3.03;;;1.80;;
11422;SDS011;5768;51.476;7.210;2023-01-01T17:18:23;3.70;;;2.00;;
11422;SDS011;5768;51.476;7.210;2023-01-01T17:23:27;2.97;;;1.65;;
11422;SDS011;5768;51.476;7.210;2023-01-01T17:41:33;2.58;;;2.10;;
11422;SDS011;5768;51.476;7.210;2023-01-01T17:46:37;3.90;;;2.40;;
11422;SDS011;5768;51.476;7.210;2023-01-01T17:51:42;4.25;;;2.95;;
11422;SDS011;5768;51.476;7.210;2023-01-01T17:56:46;5.55;;;2.72;;
11422;SDS011;5768;51.476;7.210;2023-01-01T18:01:48;6.72;;;4.80;;
11422;SDS011;5768;51.476;7.210;2023-01-01T18:06:50;4.10;;;2.97;;
11422;SDS011;5768;51.476;7.210;2023-01-01T18:11:53;3.20;;;2.70;;
11422;SDS011;5768;51.476;7.210;2023-01-01T18:16:55;2.95;;;2.20;;
11422;SDS011;5768;51.476;7.210;2023-01-01T18:21:58;3.38;;;2.75;;
11422;SDS011;5768;51.476;7.210;2023-01-01T18:27:01;5.00;;;2.83;;
11422;SDS011;5768;51.476;7.210;2023-01-01T18:32:04;6.68;;;2.78;;
11422;SDS011;5768;51.476;7.210;2023-01-01T18:37:06;4.35;;;2.80;;
11422;SDS011;5768;51.476;7.210;2023-01-01T18:42:32;6.15;;;3.17;;
11422;SDS011;5768;51.476;7.210;2023-01-01T18:47:40;6.55;;;3.17;;
11422;SDS011;5768;51.476;7.210;2023-01-01T18:52:44;4.35;;;3.10;;
11422;SDS011;5768;51.476;7.210;2023-01-01T18:57:51;5.70;;;3.53;;
11422;SDS011;5768;51.476;7.210;2023-01-01T19:03:00;7.05;;;4.85;;
11422;SDS011;5768;51.476;7.210;2023-01-01T19:08:12;5.03;;;3.28;;
11422;SDS011;5768;51.476;7.210;2023-01-01T19:13:19;4.13;;;2.95;;
11422;SDS011;5768;51.476;7.210;2023-01-01T19:18:23;3.83;;;2.72;;
11422;SDS011;5768;51.476;7.210;2023-01-01T19:23:29;6.80;;;3.20;;
11422;SDS011;5768;51.476;7.210;2023-01-01T19:28:34;5.80;;;3.42;;
11422;SDS011;5768;51.476;7.210;2023-01-01T19:33:37;7.85;;;3.45;;
11422;SDS011;5768;51.476;7.210;2023-01-01T19:38:40;8.55;;;3.53;;
11422;SDS011;5768;51.476;7.210;2023-01-01T19:43:44;6.40;;;3.40;;
11422;SDS011;5768;51.476;7.210;2023-01-01T19:48:46;5.38;;;3.05;;
11422;SDS011;5768;51.476;7.210;2023-01-01T19:53:49;7.68;;;3.45;;
11422;SDS011;5768;51.476;7.210;2023-01-01T19:58:54;5.78;;;3.60;;
11422;SDS011;5768;51.476;7.210;2023-01-01T20:03:56;8.13;;;3.17;;
11422;SDS011;5768;51.476;7.210;2023-01-01T20:08:58;7.18;;;3.20;;
11422;SDS011;5768;51.476;7.210;2023-01-01T20:14:01;7.22;;;3.45;;
11422;SDS011;5768;51.476;7.210;2023-01-01T20:19:04;7.55;;;3.65;;
11422;SDS011;5768;51.476;7.210;2023-01-01T20:24:06;8.45;;;3.83;;
11422;SDS011;5768;51.476;7.210;2023-01-01T20:29:09;8.30;;;3.35;;
11422;SDS011;5768;51.476;7.210;2023-01-01T20:34:20;6.55;;;3.55;;
11422;SDS011;5768;51.476;7.210;2023-01-01T20:39:23;6.22;;;3.40;;
11422;SDS011;5768;51.476;7.210;2023-01-01T20:44:27;6.53;;;3.50;;
11422;SDS011;5768;51.476;7.210;2023-01-01T20:49:29;5.18;;;3.40;;
11422;SDS011;5768;51.476;7.210;2023-01-01T20:54:31;6.70;;;3.40;;
11422;SDS011;5768;51.476;7.210;2023-01-01T20:59:42;6.22;;;3.65;;
11422;SDS011;5768;51.476;7.210;2023-01-01T21:04:44;6.05;;;3.30;;
11422;SDS011;5768;51.476;7.210;2023-01-01T21:09:46;5.85;;;3.60;;
11422;SDS011;5768;51.476;7.210;2023-01-01T21:14:50;7.07;;;3.47;;
11422;SDS011;5768;51.476;7.210;2023-01-01T21:19:55;6.55;;;3.45;;
11422;SDS011;5768;51.476;7.210;2023-01-01T21:24:59;6.30;;;3.50;;
11422;SDS011;5768;51.476;7.210;2023-01-01T21:30:16;6.68;;;3.75;;
11422;SDS011;5768;51.476;7.210;2023-01-01T21:35:20;6.95;;;3.78;;
11422;SDS011;5768;51.476;7.210;2023-01-01T21:45:43;4.25;;;2.45;;
11422;SDS011;5768;51.476;7.210;2023-01-01T21:50:48;6.65;;;3.33;;
11422;SDS011;5768;51.476;7.210;2023-01-01T21:55:51;8.30;;;3.28;;
11422;SDS011;5768;51.476;7.210;2023-01-01T22:00:57;7.68;;;3.03;;
11422;SDS011;5768;51.476;7.210;2023-01-01T22:05:59;6.13;;;2.88;;
11422;SDS011;5768;51.476;7.210;2023-01-01T22:11:13;8.07;;;3.35;;
11422;SDS011;5768;51.476;7.210;2023-01-01T22:16:27;6.25;;;3.13;;
11422;SDS011;5768;51.476;7.210;2023-01-01T22:21:30;6.57;;;3.22;;
11422;SDS011;5768;51.476;7.210;2023-01-01T22:26:32;6.65;;;3.22;;
11422;SDS011;5768;51.476;7.210;2023-01-01T22:31:37;5.03;;;2.75;;
11422;SDS011;5768;51.476;7.210;2023-01-01T22:36:39;6.80;;;2.85;;
11422;SDS011;5768;51.476;7.210;2023-01-01T22:41:41;5.35;;;2.97;;
11422;SDS011;5768;51.476;7.210;2023-01-01T22:46:45;5.25;;;2.55;;
11422;SDS011;5768;51.476;7.210;2023-01-01T22:51:48;3.55;;;2.60;;
11422;SDS011;5768;51.476;7.210;2023-01-01T22:56:53;5.00;;;2.67;;
11422;SDS011;5768;51.476;7.210;2023-01-01T23:01:57;6.63;;;2.75;;
11422;SDS011;5768;51.476;7.210;2023-01-01T23:06:59;6.82;;;2.80;;
11422;SDS011;5768;51.476;7.210;2023-01-01T23:12:03;4.93;;;2.80;;
11422;SDS011;5768;51.476;7.210;2023-01-01T23:17:06;5.97;;;2.67;;
11422;SDS011;5768;51.476;7.210;2023-01-01T23:22:09;4.78;;;2.53;;
11422;SDS011;5768;51.476;7.210;2023-01-01T23:27:11;5.35;;;2.60;;
11422;SDS011;5768;51.476;7.210;2023-01-01T23:32:15;6.97;;;3.13;;
11422;SDS011;5768;51.476;7.210;2023-01-01T23:37:18;5.18;;;2.50;;
11422;SDS011;5768;51.476;7.210;2023-01-01T23:42:20;4.05;;;2.40;;
11422;SDS011;5768;51.476;7.210;2023-01-01T23:47:24;5.05;;;2.45;;
11422;SDS011;5768;51.476;7.210;2023-01-01T23:52:26;5.95;;;2.50;;
11422;SDS011;5768;51.476;7.210;2023-01-01T23:57:29;5.32;;;2.53;;
